Aérodrome :
LOGIN :

S'inscrire | Disclaimer

   EN    FR    IT 

 










Légende :    VFR   VFR Marginal   IFR   IFR Intensif   IFR Très Intensif
Visi : 
Plafond : 
>= 8 km
>= 3000ft
5 à 8 km
1000 à 3000 ft
1500m à 5 km
500 à 1000 ft
800 à 1500m
200 à 500 ft
< 800m
< 200 ft
Symboles :   Orages  Brouillard  Fortes neiges  Fortes précipitations  Vent > 20 kt
SIGMETs :   Divers  Orages  Givrage  Turbulence  Onde Orograph.  Cendres Volcan.






- Altitude de l'aérodrome : 25 ft
- Code IATA : QCY


EGXC - RAF Coningsby

DERNIER METAR :
  • 090950Z 26010KT 9999 SCT022 BKN038 06/04 Q0999 TEMPO FEW022 RMK WHT TEMPO BLU

METARs EXPIRÉS :
  • 090920Z 25010KT 9999 -RA SCT028 BKN035 06/04 Q0999 TEMPO SCT022 RMK BLU TEMPO WHT
  • 090850Z 25010KT 9999 SCT024 BKN035 05/04 Q0999 BECMG FEW024 RMK WHT TEMPO BLU
  • 090750Z 25008KT 9999 BKN026 BKN030 05/04 Q0998 RMK BLU

TAF TAF EGXC
Valide du 09 à 09h jusqu'au 10 à 03h UTC


090742Z 0909/1003 26010KT 9999 SCT030
PROB40
TEMPO 0909/0912 BKN018
BECMG 0918/0921 BKN016
TEMPO 0919/1001 5000 RA BKN008
PROB40
TEMPO 0920/0924 SCT006
BECMG 1000/1002 FEW040



MET'MAP, la Météo Aéronautique d'un coup d'oeil ! - Copyright ORBIFLY Décembre 2007 - Disclaimer

ORBIFLY MET'MAP TEAM :

Programmation & Développement : Alexandra Zaïnal
Sur une idée originale de : Baudouin d'Aumeries
Assistance à la programmation : Marc-Olivier Méhu
Soutien technique & logistique : Manuel Goepfert

Contact : metmap@orbifly.com




SOURCES & CREDITS :

   NOAA